sensor_id;sensor_type;location;lat;lon;timestamp;P1;durP1;ratioP1;P2;durP2;ratioP2
78324;SDS011;67584;51.400;6.692;2023-06-04T00:01:08;3.72;;;2.30;;
78324;SDS011;67584;51.400;6.692;2023-06-04T00:03:34;3.47;;;2.20;;
78324;SDS011;67584;51.400;6.692;2023-06-04T00:06:00;2.72;;;2.00;;
78324;SDS011;67584;51.400;6.692;2023-06-04T00:08:25;5.72;;;2.20;;
78324;SDS011;67584;51.400;6.692;2023-06-04T00:10:51;2.53;;;2.20;;
78324;SDS011;67584;51.400;6.692;2023-06-04T00:13:17;2.50;;;1.90;;
78324;SDS011;67584;51.400;6.692;2023-06-04T00:15:43;3.05;;;2.08;;
78324;SDS011;67584;51.400;6.692;2023-06-04T00:18:08;3.90;;;2.30;;
78324;SDS011;67584;51.400;6.692;2023-06-04T00:20:36;2.70;;;2.15;;
78324;SDS011;67584;51.400;6.692;2023-06-04T00:23:02;2.97;;;2.00;;
78324;SDS011;67584;51.400;6.692;2023-06-04T00:25:27;4.53;;;1.85;;
78324;SDS011;67584;51.400;6.692;2023-06-04T00:27:53;2.35;;;2.05;;
78324;SDS011;67584;51.400;6.692;2023-06-04T00:30:19;2.47;;;2.00;;
78324;SDS011;67584;51.400;6.692;2023-06-04T00:32:45;2.83;;;1.90;;
78324;SDS011;67584;51.400;6.692;2023-06-04T00:35:12;2.17;;;1.77;;
78324;SDS011;67584;51.400;6.692;2023-06-04T00:37:37;2.60;;;1.98;;
78324;SDS011;67584;51.400;6.692;2023-06-04T00:40:04;2.30;;;1.88;;
78324;SDS011;67584;51.400;6.692;2023-06-04T00:42:30;3.05;;;1.80;;
78324;SDS011;67584;51.400;6.692;2023-06-04T00:44:56;2.20;;;1.98;;
78324;SDS011;67584;51.400;6.692;2023-06-04T00:47:23;2.92;;;1.90;;
78324;SDS011;67584;51.400;6.692;2023-06-04T00:49:49;3.80;;;2.20;;
78324;SDS011;67584;51.400;6.692;2023-06-04T00:52:16;2.80;;;2.03;;
78324;SDS011;67584;51.400;6.692;2023-06-04T00:54:43;2.60;;;2.08;;
78324;SDS011;67584;51.400;6.692;2023-06-04T00:57:09;3.08;;;1.92;;
78324;SDS011;67584;51.400;6.692;2023-06-04T00:59:35;2.00;;;1.80;;
78324;SDS011;67584;51.400;6.692;2023-06-04T01:02:06;3.35;;;2.13;;
78324;SDS011;67584;51.400;6.692;2023-06-04T01:07:25;2.67;;;2.15;;
78324;SDS011;67584;51.400;6.692;2023-06-04T01:09:53;2.70;;;2.00;;
78324;SDS011;67584;51.400;6.692;2023-06-04T01:12:19;3.13;;;2.40;;
78324;SDS011;67584;51.400;6.692;2023-06-04T01:14:45;2.10;;;1.90;;
78324;SDS011;67584;51.400;6.692;2023-06-04T01:25:27;2.60;;;2.15;;
78324;SDS011;67584;51.400;6.692;2023-06-04T01:28:10;2.20;;;1.92;;
78324;SDS011;67584;51.400;6.692;2023-06-04T01:30:38;5.05;;;2.42;;
78324;SDS011;67584;51.400;6.692;2023-06-04T01:33:07;3.50;;;1.98;;
78324;SDS011;67584;51.400;6.692;2023-06-04T01:35:37;4.13;;;2.30;;
78324;SDS011;67584;51.400;6.692;2023-06-04T01:38:03;4.10;;;2.20;;
78324;SDS011;67584;51.400;6.692;2023-06-04T01:40:29;2.92;;;2.10;;
78324;SDS011;67584;51.400;6.692;2023-06-04T01:42:55;6.07;;;2.35;;
78324;SDS011;67584;51.400;6.692;2023-06-04T01:45:22;4.35;;;2.28;;
78324;SDS011;67584;51.400;6.692;2023-06-04T01:47:48;10.55;;;3.03;;
78324;SDS011;67584;51.400;6.692;2023-06-04T01:50:14;5.20;;;2.40;;
78324;SDS011;67584;51.400;6.692;2023-06-04T01:52:40;5.60;;;2.22;;
78324;SDS011;67584;51.400;6.692;2023-06-04T01:55:07;5.45;;;2.33;;
78324;SDS011;67584;51.400;6.692;2023-06-04T01:57:34;3.28;;;2.42;;
78324;SDS011;67584;51.400;6.692;2023-06-04T02:00:03;2.72;;;1.90;;
78324;SDS011;67584;51.400;6.692;2023-06-04T02:02:38;4.38;;;2.10;;
78324;SDS011;67584;51.400;6.692;2023-06-04T02:05:09;3.15;;;1.95;;
78324;SDS011;67584;51.400;6.692;2023-06-04T02:07:36;2.92;;;2.25;;
78324;SDS011;67584;51.400;6.692;2023-06-04T02:10:07;5.18;;;2.53;;
78324;SDS011;67584;51.400;6.692;2023-06-04T02:12:36;5.30;;;2.33;;
78324;SDS011;67584;51.400;6.692;2023-06-04T02:15:03;2.97;;;1.90;;
78324;SDS011;67584;51.400;6.692;2023-06-04T02:17:29;5.05;;;2.20;;
78324;SDS011;67584;51.400;6.692;2023-06-04T02:19:57;4.97;;;2.22;;
78324;SDS011;67584;51.400;6.692;2023-06-04T02:22:24;3.58;;;2.20;;
78324;SDS011;67584;51.400;6.692;2023-06-04T02:24:50;3.17;;;2.30;;
78324;SDS011;67584;51.400;6.692;2023-06-04T02:27:17;5.05;;;2.20;;
78324;SDS011;67584;51.400;6.692;2023-06-04T02:29:43;3.40;;;2.30;;
78324;SDS011;67584;51.400;6.692;2023-06-04T02:32:09;3.53;;;2.05;;
78324;SDS011;67584;51.400;6.692;2023-06-04T02:34:35;3.35;;;2.63;;
78324;SDS011;67584;51.400;6.692;2023-06-04T02:37:01;3.55;;;2.00;;
78324;SDS011;67584;51.400;6.692;2023-06-04T02:39:27;3.20;;;2.22;;
78324;SDS011;67584;51.400;6.692;2023-06-04T02:41:53;3.58;;;2.30;;
78324;SDS011;67584;51.400;6.692;2023-06-04T02:44:19;3.95;;;1.88;;
78324;SDS011;67584;51.400;6.692;2023-06-04T02:46:45;3.03;;;2.00;;
78324;SDS011;67584;51.400;6.692;2023-06-04T02:49:11;3.63;;;2.25;;
78324;SDS011;67584;51.400;6.692;2023-06-04T02:51:40;3.47;;;2.22;;
78324;SDS011;67584;51.400;6.692;2023-06-04T02:54:06;4.13;;;2.33;;
78324;SDS011;67584;51.400;6.692;2023-06-04T02:56:31;4.07;;;2.03;;
78324;SDS011;67584;51.400;6.692;2023-06-04T02:58:58;4.35;;;2.50;;
78324;SDS011;67584;51.400;6.692;2023-06-04T03:01:24;3.15;;;2.08;;
78324;SDS011;67584;51.400;6.692;2023-06-04T03:03:51;4.72;;;2.25;;
78324;SDS011;67584;51.400;6.692;2023-06-04T03:06:18;4.32;;;2.15;;
78324;SDS011;67584;51.400;6.692;2023-06-04T03:08:46;5.15;;;2.40;;
78324;SDS011;67584;51.400;6.692;2023-06-04T03:11:15;3.67;;;2.28;;
78324;SDS011;67584;51.400;6.692;2023-06-04T03:13:42;3.65;;;2.20;;
78324;SDS011;67584;51.400;6.692;2023-06-04T03:16:08;3.17;;;2.35;;
78324;SDS011;67584;51.400;6.692;2023-06-04T03:21:03;2.10;;;1.90;;
78324;SDS011;67584;51.400;6.692;2023-06-04T03:23:30;2.60;;;2.10;;
78324;SDS011;67584;51.400;6.692;2023-06-04T03:25:56;2.72;;;2.30;;
78324;SDS011;67584;51.400;6.692;2023-06-04T03:28:22;3.47;;;1.92;;
78324;SDS011;67584;51.400;6.692;2023-06-04T03:30:47;3.35;;;2.80;;
78324;SDS011;67584;51.400;6.692;2023-06-04T03:33:14;2.70;;;2.13;;
78324;SDS011;67584;51.400;6.692;2023-06-04T03:35:40;2.75;;;2.08;;
78324;SDS011;67584;51.400;6.692;2023-06-04T03:38:07;4.20;;;2.60;;
78324;SDS011;67584;51.400;6.692;2023-06-04T03:40:33;5.18;;;2.63;;
78324;SDS011;67584;51.400;6.692;2023-06-04T03:42:59;3.00;;;2.00;;
78324;SDS011;67584;51.400;6.692;2023-06-04T03:45:28;2.60;;;2.22;;
78324;SDS011;67584;51.400;6.692;2023-06-04T03:47:55;3.70;;;2.30;;
78324;SDS011;67584;51.400;6.692;2023-06-04T03:50:21;3.03;;;2.10;;
78324;SDS011;67584;51.400;6.692;2023-06-04T03:52:48;3.42;;;2.83;;
78324;SDS011;67584;51.400;6.692;2023-06-04T03:55:14;5.50;;;2.53;;
78324;SDS011;67584;51.400;6.692;2023-06-04T03:57:41;5.45;;;2.53;;
78324;SDS011;67584;51.400;6.692;2023-06-04T04:00:07;6.00;;;3.28;;
78324;SDS011;67584;51.400;6.692;2023-06-04T04:02:40;4.93;;;2.67;;
78324;SDS011;67584;51.400;6.692;2023-06-04T04:05:11;4.85;;;3.25;;
78324;SDS011;67584;51.400;6.692;2023-06-04T04:07:38;6.60;;;3.63;;
78324;SDS011;67584;51.400;6.692;2023-06-04T04:10:04;5.28;;;3.10;;
78324;SDS011;67584;51.400;6.692;2023-06-04T04:12:31;6.40;;;3.10;;
78324;SDS011;67584;51.400;6.692;2023-06-04T04:14:57;8.60;;;2.88;;
78324;SDS011;67584;51.400;6.692;2023-06-04T04:17:23;6.53;;;3.47;;
78324;SDS011;67584;51.400;6.692;2023-06-04T04:19:50;5.93;;;3.28;;
78324;SDS011;67584;51.400;6.692;2023-06-04T04:22:16;4.40;;;2.95;;
78324;SDS011;67584;51.400;6.692;2023-06-04T04:24:46;5.15;;;3.00;;
78324;SDS011;67584;51.400;6.692;2023-06-04T04:27:12;5.30;;;2.53;;
78324;SDS011;67584;51.400;6.692;2023-06-04T04:29:38;4.47;;;3.30;;
78324;SDS011;67584;51.400;6.692;2023-06-04T04:32:08;4.78;;;2.80;;
78324;SDS011;67584;51.400;6.692;2023-06-04T04:34:49;4.72;;;2.80;;
78324;SDS011;67584;51.400;6.692;2023-06-04T04:37:23;4.97;;;2.90;;
78324;SDS011;67584;51.400;6.692;2023-06-04T04:39:52;4.30;;;2.45;;
78324;SDS011;67584;51.400;6.692;2023-06-04T04:42:20;3.35;;;2.45;;
78324;SDS011;67584;51.400;6.692;2023-06-04T04:44:47;2.40;;;2.13;;
78324;SDS011;67584;51.400;6.692;2023-06-04T04:47:15;4.50;;;2.25;;
78324;SDS011;67584;51.400;6.692;2023-06-04T04:49:41;3.67;;;2.38;;
78324;SDS011;67584;51.400;6.692;2023-06-04T04:52:07;4.10;;;3.03;;
78324;SDS011;67584;51.400;6.692;2023-06-04T04:54:35;3.58;;;2.40;;
78324;SDS011;67584;51.400;6.692;2023-06-04T04:57:01;3.53;;;2.08;;
78324;SDS011;67584;51.400;6.692;2023-06-04T04:59:27;4.13;;;2.40;;
78324;SDS011;67584;51.400;6.692;2023-06-04T05:01:55;3.25;;;2.60;;
78324;SDS011;67584;51.400;6.692;2023-06-04T05:04:21;5.00;;;2.33;;
78324;SDS011;67584;51.400;6.692;2023-06-04T05:06:47;6.35;;;3.25;;
78324;SDS011;67584;51.400;6.692;2023-06-04T05:09:13;4.22;;;2.70;;
78324;SDS011;67584;51.400;6.692;2023-06-04T05:11:38;3.17;;;2.67;;
78324;SDS011;67584;51.400;6.692;2023-06-04T05:14:04;3.83;;;2.97;;
78324;SDS011;67584;51.400;6.692;2023-06-04T05:16:31;3.97;;;2.70;;
78324;SDS011;67584;51.400;6.692;2023-06-04T05:18:57;3.95;;;2.20;;
78324;SDS011;67584;51.400;6.692;2023-06-04T05:23:57;3.85;;;2.40;;
78324;SDS011;67584;51.400;6.692;2023-06-04T05:26:26;4.03;;;2.50;;
78324;SDS011;67584;51.400;6.692;2023-06-04T05:28:55;2.75;;;2.10;;
78324;SDS011;67584;51.400;6.692;2023-06-04T05:31:21;4.47;;;2.17;;
78324;SDS011;67584;51.400;6.692;2023-06-04T05:33:52;3.50;;;2.20;;
78324;SDS011;67584;51.400;6.692;2023-06-04T05:36:20;3.80;;;2.50;;
78324;SDS011;67584;51.400;6.692;2023-06-04T05:38:51;3.88;;;2.97;;
78324;SDS011;67584;51.400;6.692;2023-06-04T05:41:26;3.63;;;2.45;;
78324;SDS011;67584;51.400;6.692;2023-06-04T05:43:52;5.32;;;2.70;;
78324;SDS011;67584;51.400;6.692;2023-06-04T05:46:18;5.63;;;2.65;;
78324;SDS011;67584;51.400;6.692;2023-06-04T05:48:45;2.65;;;2.22;;
78324;SDS011;67584;51.400;6.692;2023-06-04T05:51:12;5.82;;;2.97;;
78324;SDS011;67584;51.400;6.692;2023-06-04T05:53:39;4.63;;;2.88;;
78324;SDS011;67584;51.400;6.692;2023-06-04T05:56:05;3.13;;;2.33;;
78324;SDS011;67584;51.400;6.692;2023-06-04T05:58:32;4.57;;;2.55;;
78324;SDS011;67584;51.400;6.692;2023-06-04T06:00:59;3.88;;;2.40;;
78324;SDS011;67584;51.400;6.692;2023-06-04T06:03:25;3.17;;;2.35;;
78324;SDS011;67584;51.400;6.692;2023-06-04T06:05:53;5.28;;;2.30;;
78324;SDS011;67584;51.400;6.692;2023-06-04T06:08:20;2.55;;;2.10;;
78324;SDS011;67584;51.400;6.692;2023-06-04T06:10:47;2.80;;;2.60;;
78324;SDS011;67584;51.400;6.692;2023-06-04T06:13:13;2.42;;;1.90;;
78324;SDS011;67584;51.400;6.692;2023-06-04T06:15:38;3.75;;;2.13;;
78324;SDS011;67584;51.400;6.692;2023-06-04T06:18:04;3.17;;;2.65;;
78324;SDS011;67584;51.400;6.692;2023-06-04T06:20:31;2.83;;;2.13;;
78324;SDS011;67584;51.400;6.692;2023-06-04T06:22:57;3.42;;;3.13;;
78324;SDS011;67584;51.400;6.692;2023-06-04T06:25:23;4.40;;;2.30;;
78324;SDS011;67584;51.400;6.692;2023-06-04T06:28:01;3.63;;;2.05;;
78324;SDS011;67584;51.400;6.692;2023-06-04T06:30:27;2.95;;;2.20;;
78324;SDS011;67584;51.400;6.692;2023-06-04T06:32:53;3.60;;;2.30;;
78324;SDS011;67584;51.400;6.692;2023-06-04T06:35:18;2.50;;;2.10;;
78324;SDS011;67584;51.400;6.692;2023-06-04T06:37:44;4.13;;;2.15;;
78324;SDS011;67584;51.400;6.692;2023-06-04T06:40:10;2.53;;;1.90;;
78324;SDS011;67584;51.400;6.692;2023-06-04T06:42:36;3.58;;;2.92;;
78324;SDS011;67584;51.400;6.692;2023-06-04T06:45:02;2.50;;;1.80;;
78324;SDS011;67584;51.400;6.692;2023-06-04T06:47:28;2.67;;;2.20;;
78324;SDS011;67584;51.400;6.692;2023-06-04T06:49:53;2.40;;;2.03;;
78324;SDS011;67584;51.400;6.692;2023-06-04T06:52:19;2.97;;;1.98;;
78324;SDS011;67584;51.400;6.692;2023-06-04T06:54:45;3.50;;;2.10;;
78324;SDS011;67584;51.400;6.692;2023-06-04T06:57:11;2.95;;;2.00;;
78324;SDS011;67584;51.400;6.692;2023-06-04T06:59:38;4.15;;;2.15;;
78324;SDS011;67584;51.400;6.692;2023-06-04T07:02:05;4.00;;;2.35;;
78324;SDS011;67584;51.400;6.692;2023-06-04T07:04:31;4.50;;;2.20;;
78324;SDS011;67584;51.400;6.692;2023-06-04T07:06:57;7.45;;;2.28;;
78324;SDS011;67584;51.400;6.692;2023-06-04T07:09:22;2.97;;;2.00;;
78324;SDS011;67584;51.400;6.692;2023-06-04T07:11:48;2.90;;;2.40;;
78324;SDS011;67584;51.400;6.692;2023-06-04T07:14:14;3.10;;;2.35;;
78324;SDS011;67584;51.400;6.692;2023-06-04T07:16:40;4.57;;;2.47;;
78324;SDS011;67584;51.400;6.692;2023-06-04T07:19:05;4.05;;;2.17;;
78324;SDS011;67584;51.400;6.692;2023-06-04T07:21:31;3.35;;;2.33;;
78324;SDS011;67584;51.400;6.692;2023-06-04T07:23:57;4.53;;;2.40;;
78324;SDS011;67584;51.400;6.692;2023-06-04T07:26:22;3.08;;;2.33;;
78324;SDS011;67584;51.400;6.692;2023-06-04T07:28:50;3.28;;;2.35;;
78324;SDS011;67584;51.400;6.692;2023-06-04T07:31:16;3.70;;;2.30;;
78324;SDS011;67584;51.400;6.692;2023-06-04T07:33:42;3.47;;;1.98;;
78324;SDS011;67584;51.400;6.692;2023-06-04T07:36:14;3.05;;;2.10;;
78324;SDS011;67584;51.400;6.692;2023-06-04T07:38:41;3.55;;;2.40;;
78324;SDS011;67584;51.400;6.692;2023-06-04T07:41:07;3.50;;;2.20;;
78324;SDS011;67584;51.400;6.692;2023-06-04T07:43:33;3.22;;;2.55;;
78324;SDS011;67584;51.400;6.692;2023-06-04T07:46:03;4.95;;;2.60;;
78324;SDS011;67584;51.400;6.692;2023-06-04T07:48:29;5.32;;;3.00;;
78324;SDS011;67584;51.400;6.692;2023-06-04T07:50:58;3.70;;;2.67;;
78324;SDS011;67584;51.400;6.692;2023-06-04T07:53:24;5.22;;;3.97;;
78324;SDS011;67584;51.400;6.692;2023-06-04T07:55:51;3.63;;;2.53;;
78324;SDS011;67584;51.400;6.692;2023-06-04T07:58:17;5.53;;;2.80;;
78324;SDS011;67584;51.400;6.692;2023-06-04T08:00:43;4.80;;;3.20;;
78324;SDS011;67584;51.400;6.692;2023-06-04T08:03:09;3.42;;;2.38;;
78324;SDS011;67584;51.400;6.692;2023-06-04T08:05:35;4.03;;;2.60;;
78324;SDS011;67584;51.400;6.692;2023-06-04T08:08:01;5.70;;;2.88;;
78324;SDS011;67584;51.400;6.692;2023-06-04T08:10:26;7.95;;;2.83;;
78324;SDS011;67584;51.400;6.692;2023-06-04T08:12:52;7.00;;;3.10;;
78324;SDS011;67584;51.400;6.692;2023-06-04T08:15:18;7.18;;;2.90;;
78324;SDS011;67584;51.400;6.692;2023-06-04T08:17:44;3.85;;;2.65;;
78324;SDS011;67584;51.400;6.692;2023-06-04T08:20:09;5.03;;;2.75;;
78324;SDS011;67584;51.400;6.692;2023-06-04T08:22:35;2.97;;;2.40;;
78324;SDS011;67584;51.400;6.692;2023-06-04T08:25:01;5.55;;;2.72;;
78324;SDS011;67584;51.400;6.692;2023-06-04T08:27:26;3.33;;;2.42;;
78324;SDS011;67584;51.400;6.692;2023-06-04T08:29:52;4.55;;;2.60;;
78324;SDS011;67584;51.400;6.692;2023-06-04T08:32:18;3.78;;;2.40;;
78324;SDS011;67584;51.400;6.692;2023-06-04T08:34:44;4.28;;;2.67;;
78324;SDS011;67584;51.400;6.692;2023-06-04T08:37:09;5.65;;;2.70;;
78324;SDS011;67584;51.400;6.692;2023-06-04T08:39:35;3.05;;;2.50;;
78324;SDS011;67584;51.400;6.692;2023-06-04T08:42:03;5.20;;;3.10;;
78324;SDS011;67584;51.400;6.692;2023-06-04T08:44:32;4.45;;;2.80;;
78324;SDS011;67584;51.400;6.692;2023-06-04T08:47:02;3.20;;;2.65;;
78324;SDS011;67584;51.400;6.692;2023-06-04T08:49:33;7.00;;;2.75;;
78324;SDS011;67584;51.400;6.692;2023-06-04T08:52:01;3.95;;;2.85;;
78324;SDS011;67584;51.400;6.692;2023-06-04T08:54:28;4.75;;;3.15;;
78324;SDS011;67584;51.400;6.692;2023-06-04T08:56:56;2.92;;;2.63;;
78324;SDS011;67584;51.400;6.692;2023-06-04T08:59:23;3.28;;;2.58;;
78324;SDS011;67584;51.400;6.692;2023-06-04T09:01:50;3.42;;;2.85;;
78324;SDS011;67584;51.400;6.692;2023-06-04T09:04:18;4.57;;;2.55;;
78324;SDS011;67584;51.400;6.692;2023-06-04T09:06:44;3.17;;;2.13;;
78324;SDS011;67584;51.400;6.692;2023-06-04T09:09:11;4.97;;;2.28;;
78324;SDS011;67584;51.400;6.692;2023-06-04T09:11:54;2.50;;;2.13;;
78324;SDS011;67584;51.400;6.692;2023-06-04T09:14:22;4.25;;;2.10;;
78324;SDS011;67584;51.400;6.692;2023-06-04T09:16:52;4.35;;;2.63;;
78324;SDS011;67584;51.400;6.692;2023-06-04T09:19:20;3.50;;;1.90;;
78324;SDS011;67584;51.400;6.692;2023-06-04T09:21:59;4.00;;;2.00;;
78324;SDS011;67584;51.400;6.692;2023-06-04T09:27:14;2.25;;;1.90;;
78324;SDS011;67584;51.400;6.692;2023-06-04T09:29:50;4.20;;;2.28;;
78324;SDS011;67584;51.400;6.692;2023-06-04T09:32:26;4.65;;;2.22;;
78324;SDS011;67584;51.400;6.692;2023-06-04T09:34:55;3.15;;;2.20;;
78324;SDS011;67584;51.400;6.692;2023-06-04T09:37:22;2.83;;;2.30;;
78324;SDS011;67584;51.400;6.692;2023-06-04T09:39:54;3.15;;;2.20;;
78324;SDS011;67584;51.400;6.692;2023-06-04T09:42:21;3.05;;;2.20;;
78324;SDS011;67584;51.400;6.692;2023-06-04T09:44:49;2.70;;;2.30;;
78324;SDS011;67584;51.400;6.692;2023-06-04T09:47:15;2.70;;;2.00;;
78324;SDS011;67584;51.400;6.692;2023-06-04T09:49:45;2.60;;;1.77;;
78324;SDS011;67584;51.400;6.692;2023-06-04T09:52:11;5.10;;;2.90;;
78324;SDS011;67584;51.400;6.692;2023-06-04T09:54:40;2.72;;;2.20;;
78324;SDS011;67584;51.400;6.692;2023-06-04T09:57:14;3.72;;;2.40;;
78324;SDS011;67584;51.400;6.692;2023-06-04T09:59:50;3.05;;;2.33;;
78324;SDS011;67584;51.400;6.692;2023-06-04T10:02:21;2.78;;;2.20;;
78324;SDS011;67584;51.400;6.692;2023-06-04T10:04:54;4.25;;;2.88;;
78324;SDS011;67584;51.400;6.692;2023-06-04T10:07:23;3.13;;;2.83;;
78324;SDS011;67584;51.400;6.692;2023-06-04T10:09:50;4.72;;;2.60;;
78324;SDS011;67584;51.400;6.692;2023-06-04T10:12:16;3.92;;;2.65;;
78324;SDS011;67584;51.400;6.692;2023-06-04T10:14:51;3.58;;;2.92;;
78324;SDS011;67584;51.400;6.692;2023-06-04T10:17:20;3.20;;;2.70;;
78324;SDS011;67584;51.400;6.692;2023-06-04T10:19:48;5.22;;;3.20;;
78324;SDS011;67584;51.400;6.692;2023-06-04T10:22:20;3.45;;;2.50;;
78324;SDS011;67584;51.400;6.692;2023-06-04T10:24:45;4.25;;;2.53;;
78324;SDS011;67584;51.400;6.692;2023-06-04T10:27:12;4.45;;;2.58;;
78324;SDS011;67584;51.400;6.692;2023-06-04T10:29:38;4.03;;;2.75;;
78324;SDS011;67584;51.400;6.692;2023-06-04T10:32:04;3.25;;;2.50;;
78324;SDS011;67584;51.400;6.692;2023-06-04T10:34:31;2.50;;;2.30;;
78324;SDS011;67584;51.400;6.692;2023-06-04T10:36:58;3.10;;;2.63;;
78324;SDS011;67584;51.400;6.692;2023-06-04T10:39:27;3.08;;;2.30;;
78324;SDS011;67584;51.400;6.692;2023-06-04T10:42:03;3.10;;;2.90;;
78324;SDS011;67584;51.400;6.692;2023-06-04T10:44:30;4.43;;;3.22;;
78324;SDS011;67584;51.400;6.692;2023-06-04T10:46:57;2.72;;;2.45;;
78324;SDS011;67584;51.400;6.692;2023-06-04T10:49:30;3.53;;;2.63;;
78324;SDS011;67584;51.400;6.692;2023-06-04T10:52:09;3.95;;;2.80;;
78324;SDS011;67584;51.400;6.692;2023-06-04T10:54:35;4.45;;;2.88;;
78324;SDS011;67584;51.400;6.692;2023-06-04T10:57:09;2.63;;;2.42;;
78324;SDS011;67584;51.400;6.692;2023-06-04T10:59:55;3.53;;;2.42;;
78324;SDS011;67584;51.400;6.692;2023-06-04T11:02:25;5.90;;;3.13;;
78324;SDS011;67584;51.400;6.692;2023-06-04T11:04:58;3.05;;;2.75;;
78324;SDS011;67584;51.400;6.692;2023-06-04T11:07:26;3.40;;;2.85;;
78324;SDS011;67584;51.400;6.692;2023-06-04T11:09:52;3.95;;;3.55;;
78324;SDS011;67584;51.400;6.692;2023-06-04T11:12:18;3.25;;;2.78;;
78324;SDS011;67584;51.400;6.692;2023-06-04T11:14:57;4.03;;;2.75;;
78324;SDS011;67584;51.400;6.692;2023-06-04T11:17:23;4.10;;;2.78;;
78324;SDS011;67584;51.400;6.692;2023-06-04T11:19:49;3.30;;;2.95;;
78324;SDS011;67584;51.400;6.692;2023-06-04T11:22:15;3.85;;;3.00;;
78324;SDS011;67584;51.400;6.692;2023-06-04T11:24:40;2.97;;;2.70;;
78324;SDS011;67584;51.400;6.692;2023-06-04T11:27:06;4.25;;;3.05;;
78324;SDS011;67584;51.400;6.692;2023-06-04T11:29:32;3.85;;;3.45;;
78324;SDS011;67584;51.400;6.692;2023-06-04T11:31:58;3.95;;;3.15;;
78324;SDS011;67584;51.400;6.692;2023-06-04T11:36:50;3.83;;;2.88;;
78324;SDS011;67584;51.400;6.692;2023-06-04T11:44:09;5.28;;;3.72;;
78324;SDS011;67584;51.400;6.692;2023-06-04T11:46:41;4.05;;;3.70;;
78324;SDS011;67584;51.400;6.692;2023-06-04T11:49:16;4.53;;;3.15;;
78324;SDS011;67584;51.400;6.692;2023-06-04T11:51:47;3.35;;;2.80;;
78324;SDS011;67584;51.400;6.692;2023-06-04T11:54:17;3.35;;;2.88;;
78324;SDS011;67584;51.400;6.692;2023-06-04T11:56:49;4.28;;;3.20;;
78324;SDS011;67584;51.400;6.692;2023-06-04T11:59:16;3.60;;;3.30;;
78324;SDS011;67584;51.400;6.692;2023-06-04T12:01:43;3.38;;;3.05;;
78324;SDS011;67584;51.400;6.692;2023-06-04T12:04:13;3.20;;;2.90;;
78324;SDS011;67584;51.400;6.692;2023-06-04T12:06:53;3.90;;;3.53;;
78324;SDS011;67584;51.400;6.692;2023-06-04T12:09:22;3.63;;;3.33;;
78324;SDS011;67584;51.400;6.692;2023-06-04T12:11:49;5.65;;;3.47;;
78324;SDS011;67584;51.400;6.692;2023-06-04T12:14:16;3.78;;;3.47;;
78324;SDS011;67584;51.400;6.692;2023-06-04T12:16:43;4.47;;;3.58;;
78324;SDS011;67584;51.400;6.692;2023-06-04T12:19:19;4.03;;;3.60;;
78324;SDS011;67584;51.400;6.692;2023-06-04T12:21:45;4.50;;;3.42;;
78324;SDS011;67584;51.400;6.692;2023-06-04T12:24:11;4.53;;;3.00;;
78324;SDS011;67584;51.400;6.692;2023-06-04T12:26:38;3.78;;;3.47;;
78324;SDS011;67584;51.400;6.692;2023-06-04T12:31:42;6.93;;;5.78;;
78324;SDS011;67584;51.400;6.692;2023-06-04T12:34:09;6.55;;;5.15;;
78324;SDS011;67584;51.400;6.692;2023-06-04T12:36:36;6.05;;;4.30;;
78324;SDS011;67584;51.400;6.692;2023-06-04T12:39:04;3.42;;;3.13;;
78324;SDS011;67584;51.400;6.692;2023-06-04T12:41:30;6.40;;;3.38;;
78324;SDS011;67584;51.400;6.692;2023-06-04T12:43:58;4.32;;;3.20;;
78324;SDS011;67584;51.400;6.692;2023-06-04T12:46:24;4.90;;;3.33;;
78324;SDS011;67584;51.400;6.692;2023-06-04T12:48:50;4.43;;;3.70;;
78324;SDS011;67584;51.400;6.692;2023-06-04T12:51:17;5.63;;;3.50;;
78324;SDS011;67584;51.400;6.692;2023-06-04T12:53:43;5.32;;;3.25;;
78324;SDS011;67584;51.400;6.692;2023-06-04T12:56:09;4.43;;;3.30;;
78324;SDS011;67584;51.400;6.692;2023-06-04T12:58:35;4.78;;;3.40;;
78324;SDS011;67584;51.400;6.692;2023-06-04T13:01:01;3.80;;;3.45;;
78324;SDS011;67584;51.400;6.692;2023-06-04T13:03:29;3.65;;;3.35;;
78324;SDS011;67584;51.400;6.692;2023-06-04T13:10:47;4.57;;;3.08;;
78324;SDS011;67584;51.400;6.692;2023-06-04T13:13:14;4.78;;;3.53;;
78324;SDS011;67584;51.400;6.692;2023-06-04T13:15:43;4.70;;;3.63;;
78324;SDS011;67584;51.400;6.692;2023-06-04T13:18:10;3.90;;;3.47;;
78324;SDS011;67584;51.400;6.692;2023-06-04T13:20:36;4.20;;;3.10;;
78324;SDS011;67584;51.400;6.692;2023-06-04T13:23:02;3.90;;;3.50;;
78324;SDS011;67584;51.400;6.692;2023-06-04T13:25:28;4.13;;;3.83;;
78324;SDS011;67584;51.400;6.692;2023-06-04T13:27:55;3.75;;;3.40;;
78324;SDS011;67584;51.400;6.692;2023-06-04T13:30:21;5.57;;;4.00;;
78324;SDS011;67584;51.400;6.692;2023-06-04T13:32:47;3.83;;;3.25;;
78324;SDS011;67584;51.400;6.692;2023-06-04T13:35:13;4.72;;;4.32;;
78324;SDS011;67584;51.400;6.692;2023-06-04T13:37:39;4.30;;;3.90;;
78324;SDS011;67584;51.400;6.692;2023-06-04T13:40:05;3.95;;;3.50;;
78324;SDS011;67584;51.400;6.692;2023-06-04T13:42:31;3.42;;;3.13;;
78324;SDS011;67584;51.400;6.692;2023-06-04T13:44:57;3.88;;;3.45;;
78324;SDS011;67584;51.400;6.692;2023-06-04T13:47:24;4.20;;;3.80;;
78324;SDS011;67584;51.400;6.692;2023-06-04T13:49:50;4.63;;;3.67;;
78324;SDS011;67584;51.400;6.692;2023-06-04T13:52:16;4.50;;;2.97;;
78324;SDS011;67584;51.400;6.692;2023-06-04T13:54:42;4.40;;;3.85;;
78324;SDS011;67584;51.400;6.692;2023-06-04T13:57:08;6.55;;;4.40;;
78324;SDS011;67584;51.400;6.692;2023-06-04T13:59:36;3.53;;;3.22;;
78324;SDS011;67584;51.400;6.692;2023-06-04T14:02:02;4.30;;;3.95;;
78324;SDS011;67584;51.400;6.692;2023-06-04T14:04:28;4.43;;;4.03;;
78324;SDS011;67584;51.400;6.692;2023-06-04T14:06:54;5.60;;;3.38;;
78324;SDS011;67584;51.400;6.692;2023-06-04T14:09:20;5.05;;;3.58;;
78324;SDS011;67584;51.400;6.692;2023-06-04T14:11:46;3.78;;;3.47;;
78324;SDS011;67584;51.400;6.692;2023-06-04T14:14:16;3.85;;;3.53;;
78324;SDS011;67584;51.400;6.692;2023-06-04T14:16:44;4.57;;;3.80;;
78324;SDS011;67584;51.400;6.692;2023-06-04T14:19:10;4.25;;;3.78;;
78324;SDS011;67584;51.400;6.692;2023-06-04T14:21:36;4.20;;;3.80;;
78324;SDS011;67584;51.400;6.692;2023-06-04T14:24:02;3.63;;;3.33;;
78324;SDS011;67584;51.400;6.692;2023-06-04T14:26:28;4.30;;;3.90;;
78324;SDS011;67584;51.400;6.692;2023-06-04T14:28:54;3.83;;;3.47;;
78324;SDS011;67584;51.400;6.692;2023-06-04T14:31:20;7.25;;;4.05;;
78324;SDS011;67584;51.400;6.692;2023-06-04T14:33:46;3.70;;;3.40;;
78324;SDS011;67584;51.400;6.692;2023-06-04T14:36:12;4.13;;;3.72;;
78324;SDS011;67584;51.400;6.692;2023-06-04T14:38:38;3.92;;;3.53;;
78324;SDS011;67584;51.400;6.692;2023-06-04T14:41:05;3.65;;;3.35;;
78324;SDS011;67584;51.400;6.692;2023-06-04T14:43:30;3.72;;;3.38;;
78324;SDS011;67584;51.400;6.692;2023-06-04T14:45:56;4.88;;;3.92;;
78324;SDS011;67584;51.400;6.692;2023-06-04T14:48:22;4.35;;;3.95;;
78324;SDS011;67584;51.400;6.692;2023-06-04T14:50:48;4.00;;;3.70;;
78324;SDS011;67584;51.400;6.692;2023-06-04T14:53:14;3.55;;;3.25;;
78324;SDS011;67584;51.400;6.692;2023-06-04T14:55:40;4.25;;;3.58;;
78324;SDS011;67584;51.400;6.692;2023-06-04T14:58:06;3.88;;;3.35;;
78324;SDS011;67584;51.400;6.692;2023-06-04T15:00:32;4.82;;;3.60;;
78324;SDS011;67584;51.400;6.692;2023-06-04T15:02:58;3.70;;;3.33;;
78324;SDS011;67584;51.400;6.692;2023-06-04T15:05:25;4.28;;;3.88;;
78324;SDS011;67584;51.400;6.692;2023-06-04T15:07:50;3.97;;;3.05;;
78324;SDS011;67584;51.400;6.692;2023-06-04T15:10:16;4.35;;;3.70;;
78324;SDS011;67584;51.400;6.692;2023-06-04T15:12:42;3.42;;;3.13;;
78324;SDS011;67584;51.400;6.692;2023-06-04T15:15:08;4.15;;;3.38;;
78324;SDS011;67584;51.400;6.692;2023-06-04T15:17:35;4.80;;;3.63;;
78324;SDS011;67584;51.400;6.692;2023-06-04T15:20:01;3.90;;;3.40;;
78324;SDS011;67584;51.400;6.692;2023-06-04T15:22:28;3.88;;;3.58;;